Daresbury, United Kingdom
Current Conditions -  °F | °C
As of 8:50 AM on Monday 22 Dec 2014 (Local Time) from EGGP Reporting Station
Broken Clouds Broken Clouds  
Wind Chill: 54°   Ceiling: 2000
Heat Index: 54°   Visibility: 6mi
Dew Point: 48°   Wind: 22mph
Humidity: 82%   Direction: 230°SW
Pressure: 29.85"   Gusts: NA
Location:  53.34°N, 2.64°W
Report Text: EGGP 220850Z 23019KT 9999 BKN020 12/09 Q1011
Loading
Personal Weather Stations






























Interactive Weather Map New forecast layout! Learn more

10-Day Weather Forecast

Advertisements
Track Severe Weather on mobile